Time;durP1;ratioP1;P1;durP2;ratioP2;P2;SDS_P1;SDS_P2;PMS_P1;PMS_P2;Temp;Humidity;BMP_temperature;BMP_pressure;BME280_temperature;BME280_humidity;BME280_pressure;Samples;Min_cycle;Max_cycle;Signal;HPM_P1;HPM_P2
2023/06/13 00:00:57;;;;;;;;;;;25.50;59.80;;;;;;5043621;28;43661;-86
2023/06/13 00:03:23;;;;;;;;;;;25.50;60.60;;;;;;5026067;28;43238;-85
2023/06/13 00:05:49;;;;;;;;;;;25.60;60.70;;;;;;5044623;28;43685;-85
2023/06/13 00:08:18;;;;;;;;;;;25.50;60.00;;;;;;5044621;28;43396;-84
2023/06/13 00:10:47;;;;;;;;;;;25.50;60.00;;;;;;5052994;28;43523;-84
2023/06/13 00:13:14;;;;;;;;;;;25.60;60.00;;;;;;5039266;28;43061;-86
2023/06/13 00:15:46;;;;;;;;;;;25.50;60.50;;;;;;5043628;28;43507;-84
2023/06/13 00:18:11;;;;;;;;;;;25.60;60.70;;;;;;5044631;28;42880;-85
2023/06/13 00:20:37;;;;;;;;;;;25.50;60.80;;;;;;5046771;28;42923;-86
2023/06/13 00:23:04;;;;;;;;;;;25.50;60.00;;;;;;5046673;28;43003;-85
2023/06/13 00:25:29;;;;;;;;;;;25.50;59.90;;;;;;5047377;28;42996;-85
2023/06/13 00:27:55;;;;;;;;;;;25.50;60.50;;;;;;5047521;28;42844;-85
2023/06/13 00:30:20;;;;;;;;;;;25.50;59.70;;;;;;5047799;28;43518;-85
2023/06/13 00:32:46;;;;;;;;;;;25.60;59.70;;;;;;5029348;28;42813;-86
2023/06/13 00:35:12;;;;;;;;;;;25.60;59.60;;;;;;5046979;28;43505;-85
2023/06/13 00:37:38;;;;;;;;;;;25.50;59.50;;;;;;5046678;28;42983;-85
2023/06/13 00:40:05;;;;;;;;;;;25.50;59.50;;;;;;5046928;28;43262;-86
2023/06/13 00:42:31;;;;;;;;;;;25.50;60.20;;;;;;5047455;28;42811;-85
2023/06/13 00:45:17;;;;;;;;;;;25.50;59.50;;;;;;5046977;28;43479;-84
2023/06/13 00:47:42;;;;;;;;;;;25.50;60.00;;;;;;5047335;28;43152;-84
2023/06/13 00:50:08;;;;;;;;;;;25.50;59.40;;;;;;5046702;28;43011;-84
2023/06/13 00:52:34;;;;;;;;;;;25.50;59.30;;;;;;5046240;28;42946;-83
2023/06/13 00:55:00;;;;;;;;;;;25.50;59.30;;;;;;5046827;28;42927;-85
2023/06/13 00:57:25;;;;;;;;;;;25.50;59.20;;;;;;5047166;28;42858;-86
2023/06/13 00:59:51;;;;;;;;;;;25.50;59.00;;;;;;5028635;28;42880;-86
2023/06/13 01:02:20;;;;;;;;;;;25.50;58.90;;;;;;5046701;28;42932;-84
2023/06/13 01:04:47;;;;;;;;;;;25.50;58.90;;;;;;5045015;28;43372;-86
2023/06/13 01:07:14;;;;;;;;;;;25.50;58.90;;;;;;5046883;28;43434;-85
2023/06/13 01:09:40;;;;;;;;;;;25.50;58.90;;;;;;5045373;28;43523;-85
2023/06/13 01:12:10;;;;;;;;;;;25.50;58.90;;;;;;5046074;28;43022;-85
2023/06/13 01:14:42;;;;;;;;;;;25.50;58.90;;;;;;5044984;28;42840;-84
2023/06/13 01:17:14;;;;;;;;;;;25.50;59.40;;;;;;5028223;28;42916;-85
2023/06/13 01:19:47;;;;;;;;;;;25.50;59.50;;;;;;5046493;28;43689;-86
2023/06/13 01:22:16;;;;;;;;;;;25.50;59.00;;;;;;5046607;28;42932;-85
2023/06/13 01:24:41;;;;;;;;;;;25.50;59.10;;;;;;5027985;28;44717;-85
2023/06/13 01:27:08;;;;;;;;;;;25.50;59.10;;;;;;5034303;28;43019;-85
2023/06/13 01:29:34;;;;;;;;;;;25.50;59.10;;;;;;5045624;28;43849;-85
2023/06/13 01:32:00;;;;;;;;;;;25.50;59.10;;;;;;5027940;28;42909;-85
2023/06/13 01:34:25;;;;;;;;;;;25.50;59.10;;;;;;5032309;28;44959;-84
2023/06/13 01:36:51;;;;;;;;;;;25.50;59.20;;;;;;5046311;28;42869;-85
2023/06/13 01:39:17;;;;;;;;;;;25.50;59.20;;;;;;5046426;28;43546;-85
2023/06/13 01:41:42;;;;;;;;;;;25.50;59.30;;;;;;5028555;28;43065;-85
2023/06/13 01:44:11;;;;;;;;;;;25.50;59.30;;;;;;5046383;28;42909;-85
2023/06/13 01:47:01;;;;;;;;;;;25.50;59.40;;;;;;5046394;28;43044;-85
2023/06/13 01:49:42;;;;;;;;;;;25.50;59.40;;;;;;5046177;28;43194;-85
2023/06/13 01:52:32;;;;;;;;;;;25.50;59.40;;;;;;5046182;28;42987;-86
2023/06/13 01:55:08;;;;;;;;;;;25.50;59.90;;;;;;5046257;28;42907;-85
2023/06/13 01:57:39;;;;;;;;;;;25.50;59.30;;;;;;5046353;28;42911;-85
2023/06/13 02:00:06;;;;;;;;;;;25.50;59.20;;;;;;5045861;28;42819;-84
2023/06/13 02:02:32;;;;;;;;;;;25.50;59.20;;;;;;5046080;28;42873;-86
2023/06/13 02:04:58;;;;;;;;;;;25.50;59.30;;;;;;5046186;28;42907;-85
2023/06/13 02:07:24;;;;;;;;;;;25.50;59.20;;;;;;5045533;28;42902;-85
2023/06/13 02:09:50;;;;;;;;;;;25.50;59.20;;;;;;5045405;28;42951;-85
2023/06/13 02:12:16;;;;;;;;;;;25.50;59.20;;;;;;5045352;28;42888;-86
2023/06/13 02:14:42;;;;;;;;;;;25.50;59.20;;;;;;5026706;28;45461;-86
2023/06/13 02:17:08;;;;;;;;;;;25.50;59.80;;;;;;5045590;28;42939;-85
2023/06/13 02:19:34;;;;;;;;;;;25.50;59.20;;;;;;5044982;28;42773;-85
2023/06/13 02:22:00;;;;;;;;;;;25.50;59.20;;;;;;5045348;28;42999;-85
2023/06/13 02:24:25;;;;;;;;;;;25.50;59.20;;;;;;5045571;28;43175;-85
2023/06/13 02:26:51;;;;;;;;;;;25.50;59.10;;;;;;5045142;28;43010;-84
2023/06/13 02:29:18;;;;;;;;;;;25.50;59.00;;;;;;5027365;28;44389;-85
2023/06/13 02:31:44;;;;;;;;;;;25.50;59.00;;;;;;5044529;28;42904;-86
2023/06/13 02:34:10;;;;;;;;;;;25.50;59.00;;;;;;5045114;28;43422;-85
2023/06/13 02:36:36;;;;;;;;;;;25.50;59.10;;;;;;5044559;28;42984;-84
2023/06/13 02:39:03;;;;;;;;;;;25.50;59.50;;;;;;5045329;28;43503;-84
2023/06/13 02:41:29;;;;;;;;;;;25.50;59.00;;;;;;5044502;28;42892;-86
2023/06/13 02:43:54;;;;;;;;;;;25.50;59.00;;;;;;5045401;28;43525;-84
2023/06/13 02:46:20;;;;;;;;;;;25.50;58.90;;;;;;5045681;28;42900;-86
2023/06/13 02:48:45;;;;;;;;;;;25.50;58.90;;;;;;5027651;28;43587;-85
2023/06/13 02:51:11;;;;;;;;;;;25.50;59.00;;;;;;5045194;28;43207;-83
2023/06/13 02:53:36;;;;;;;;;;;25.50;59.00;;;;;;5045049;28;42922;-84
2023/06/13 02:56:02;;;;;;;;;;;25.50;59.00;;;;;;5045418;28;42881;-85
2023/06/13 02:58:27;;;;;;;;;;;25.50;59.60;;;;;;5045217;28;43534;-84
2023/06/13 03:00:53;;;;;;;;;;;25.50;59.00;;;;;;5045256;28;42853;-84
2023/06/13 03:03:21;;;;;;;;;;;25.50;58.90;;;;;;5043336;28;43417;-84
2023/06/13 03:05:56;;;;;;;;;;;25.50;58.90;;;;;;5045041;28;43105;-83
2023/06/13 03:08:22;;;;;;;;;;;25.50;59.40;;;;;;5044636;28;43317;-85
2023/06/13 03:10:48;;;;;;;;;;;25.50;58.90;;;;;;5043880;28;43579;-84
2023/06/13 03:13:15;;;;;;;;;;;25.50;58.80;;;;;;5044406;28;43479;-84
2023/06/13 03:15:43;;;;;;;;;;;25.50;59.40;;;;;;5044413;28;43050;-84
2023/06/13 03:18:08;;;;;;;;;;;25.50;58.90;;;;;;5044829;28;43751;-84
2023/06/13 03:20:37;;;;;;;;;;;25.50;58.90;;;;;;5044724;28;42955;-85
2023/06/13 03:23:02;;;;;;;;;;;25.50;59.40;;;;;;5027076;28;44416;-84
2023/06/13 03:25:29;;;;;;;;;;;25.50;58.90;;;;;;5044275;28;42873;-84
2023/06/13 03:27:55;;;;;;;;;;;25.50;58.80;;;;;;5042933;28;43584;-85
2023/06/13 03:30:20;;;;;;;;;;;25.50;58.80;;;;;;5026829;28;42828;-84
2023/06/13 03:32:46;;;;;;;;;;;25.50;58.80;;;;;;5044428;28;43589;-84
2023/06/13 03:35:11;;;;;;;;;;;25.50;58.70;;;;;;5042315;28;44794;-79
2023/06/13 03:37:37;;;;;;;;;;;25.50;59.30;;;;;;5043727;28;43599;-76
2023/06/13 03:40:04;;;;;;;;;;;25.60;59.30;;;;;;5038245;28;43216;-76
2023/06/13 03:42:29;;;;;;;;;;;25.50;59.20;;;;;;5064018;28;42959;-78
2023/06/13 03:44:55;;;;;;;;;;;25.50;59.20;;;;;;5044235;28;43015;-81
2023/06/13 03:47:20;;;;;;;;;;;25.50;59.20;;;;;;5043106;28;42951;-76
2023/06/13 03:49:46;;;;;;;;;;;25.50;59.20;;;;;;5043841;28;42963;-76
2023/06/13 03:52:11;;;;;;;;;;;25.50;59.10;;;;;;5042898;28;43050;-81
2023/06/13 03:54:37;;;;;;;;;;;25.50;59.20;;;;;;5045534;28;43581;-80
2023/06/13 03:57:03;;;;;;;;;;;25.50;59.20;;;;;;5047052;28;43093;-79
2023/06/13 03:59:28;;;;;;;;;;;25.50;59.10;;;;;;5047707;28;43245;-80
2023/06/13 04:01:54;;;;;;;;;;;25.50;59.10;;;;;;5047164;28;42790;-81
2023/06/13 04:04:19;;;;;;;;;;;25.50;59.10;;;;;;5047401;28;43132;-76
2023/06/13 04:06:47;;;;;;;;;;;25.50;59.10;;;;;;5047178;28;42760;-76
2023/06/13 04:09:13;;;;;;;;;;;25.50;59.10;;;;;;5045574;28;43038;-80
2023/06/13 04:11:39;;;;;;;;;;;25.60;59.00;;;;;;5026765;28;44206;-76
2023/06/13 04:14:05;;;;;;;;;;;25.50;59.10;;;;;;5046532;28;43074;-80
2023/06/13 04:16:30;;;;;;;;;;;25.60;59.10;;;;;;5028510;28;43544;-76
2023/06/13 04:18:55;;;;;;;;;;;25.50;59.00;;;;;;5046826;28;43014;-78
2023/06/13 04:21:24;;;;;;;;;;;25.50;59.00;;;;;;5046392;28;42868;-79
2023/06/13 04:23:49;;;;;;;;;;;25.50;58.50;;;;;;5047144;28;42964;-78
2023/06/13 04:26:17;;;;;;;;;;;25.50;59.00;;;;;;5045904;28;43433;-82
2023/06/13 04:28:45;;;;;;;;;;;25.50;59.00;;;;;;5045026;28;43209;-81
2023/06/13 04:31:11;;;;;;;;;;;25.50;58.90;;;;;;5043650;28;43641;-78
2023/06/13 04:33:39;;;;;;;;;;;25.50;59.00;;;;;;5028795;28;43007;-78
2023/06/13 04:36:08;;;;;;;;;;;25.60;58.60;;;;;;5044612;28;43414;-80
2023/06/13 04:38:34;;;;;;;;;;;25.50;58.50;;;;;;5045113;28;43151;-77
2023/06/13 04:41:00;;;;;;;;;;;25.60;59.10;;;;;;5061398;28;42919;-77
2023/06/13 04:43:28;;;;;;;;;;;25.50;58.60;;;;;;5061131;28;42798;-78
2023/06/13 04:45:55;;;;;;;;;;;25.50;59.10;;;;;;5046393;28;43729;-81
2023/06/13 04:48:25;;;;;;;;;;;25.50;59.00;;;;;;5045695;28;42956;-78
2023/06/13 04:50:51;;;;;;;;;;;25.50;59.10;;;;;;5042562;28;43566;-78
2023/06/13 04:53:21;;;;;;;;;;;25.60;59.10;;;;;;5046197;28;42904;-81
2023/06/13 04:55:47;;;;;;;;;;;25.50;59.10;;;;;;5042236;28;42986;-80
2023/06/13 04:58:13;;;;;;;;;;;25.50;59.00;;;;;;5045456;28;43131;-77
2023/06/13 05:00:38;;;;;;;;;;;25.50;59.10;;;;;;5046115;28;42958;-78
2023/06/13 05:03:04;;;;;;;;;;;25.50;59.20;;;;;;5045815;28;42944;-80
2023/06/13 05:05:30;;;;;;;;;;;25.50;59.20;;;;;;5043174;28;43552;-80
2023/06/13 05:07:57;;;;;;;;;;;25.50;59.10;;;;;;5043335;28;43026;-82
2023/06/13 05:10:23;;;;;;;;;;;25.50;59.20;;;;;;5042287;28;43502;-80
2023/06/13 05:12:49;;;;;;;;;;;25.60;59.10;;;;;;5045543;28;42825;-78
2023/06/13 05:15:16;;;;;;;;;;;25.60;59.10;;;;;;5046019;28;43403;-77
2023/06/13 05:17:45;;;;;;;;;;;25.50;58.60;;;;;;5044927;28;43081;-77
2023/06/13 05:20:12;;;;;;;;;;;25.90;59.00;;;;;;5044847;28;43454;-77
2023/06/13 05:22:39;;;;;;;;;;;25.50;58.80;;;;;;5041229;28;43114;-80
2023/06/13 05:25:08;;;;;;;;;;;25.50;59.30;;;;;;5044787;28;42954;-80
2023/06/13 05:27:34;;;;;;;;;;;25.50;58.80;;;;;;5028584;28;43027;-80
2023/06/13 05:29:59;;;;;;;;;;;25.50;59.40;;;;;;5045442;28;43002;-91
2023/06/13 05:32:25;;;;;;;;;;;25.50;58.70;;;;;;5043486;28;43568;-83
2023/06/13 05:34:50;;;;;;;;;;;25.50;58.60;;;;;;5044163;28;43992;-80
2023/06/13 05:37:17;;;;;;;;;;;25.40;58.60;;;;;;5045033;28;42889;-79
2023/06/13 05:39:43;;;;;;;;;;;25.50;59.30;;;;;;5044912;28;43387;-79
2023/06/13 05:42:09;;;;;;;;;;;25.50;58.70;;;;;;5044295;28;42984;-80
2023/06/13 05:44:34;;;;;;;;;;;25.50;59.20;;;;;;5041612;28;44018;-87
2023/06/13 05:47:00;;;;;;;;;;;25.50;58.60;;;;;;5045700;28;42970;-80
2023/06/13 05:49:25;;;;;;;;;;;25.50;59.10;;;;;;5045191;28;43276;-79
2023/06/13 05:51:52;;;;;;;;;;;25.40;58.60;;;;;;5045559;28;42859;-86
2023/06/13 05:54:18;;;;;;;;;;;25.50;59.30;;;;;;5045352;28;44369;-79
2023/06/13 05:56:44;;;;;;;;;;;25.50;58.80;;;;;;5041710;28;44773;-79
2023/06/13 05:59:09;;;;;;;;;;;25.50;59.40;;;;;;5045078;28;43010;-90
2023/06/13 06:01:36;;;;;;;;;;;25.40;58.90;;;;;;5044839;28;42770;-89
2023/06/13 06:04:01;;;;;;;;;;;25.50;59.60;;;;;;5044542;28;42931;-79
2023/06/13 06:06:27;;;;;;;;;;;25.50;59.50;;;;;;5044782;28;43691;-80
2023/06/13 06:08:52;;;;;;;;;;;25.50;59.60;;;;;;5041494;28;43593;-85
2023/06/13 06:11:18;;;;;;;;;;;25.50;59.00;;;;;;5044662;28;42939;-80
2023/06/13 06:13:44;;;;;;;;;;;25.40;59.00;;;;;;5047776;28;42793;-80
2023/06/13 06:16:10;;;;;;;;;;;25.50;59.70;;;;;;5055481;28;43109;-80
2023/06/13 06:18:36;;;;;;;;;;;25.50;59.40;;;;;;5059399;28;43549;-85
2023/06/13 06:21:02;;;;;;;;;;;25.50;59.30;;;;;;5042770;28;42951;-80
2023/06/13 06:23:28;;;;;;;;;;;25.40;59.00;;;;;;5045018;28;43047;-90
2023/06/13 06:25:53;;;;;;;;;;;25.40;59.60;;;;;;5045151;28;42946;-85
2023/06/13 06:28:18;;;;;;;;;;;25.50;59.00;;;;;;5044026;28;43463;-80
2023/06/13 06:30:44;;;;;;;;;;;25.50;59.40;;;;;;5044631;28;42895;-89
2023/06/13 06:33:10;;;;;;;;;;;25.50;58.90;;;;;;5044845;28;42904;-80
2023/06/13 06:35:35;;;;;;;;;;;25.40;58.80;;;;;;5045060;28;43024;-91
2023/06/13 06:38:01;;;;;;;;;;;25.40;59.20;;;;;;5045129;28;43399;-83
2023/06/13 06:40:26;;;;;;;;;;;25.40;58.70;;;;;;5044678;28;42884;-90
2023/06/13 06:42:52;;;;;;;;;;;25.40;58.80;;;;;;5043737;28;43046;-82
2023/06/13 06:45:17;;;;;;;;;;;25.50;59.40;;;;;;5043687;28;42908;-89
2023/06/13 06:47:43;;;;;;;;;;;25.40;58.90;;;;;;5041989;28;42926;-79
2023/06/13 06:50:08;;;;;;;;;;;25.40;59.40;;;;;;5043424;28;44073;-86
2023/06/13 06:52:34;;;;;;;;;;;25.40;59.50;;;;;;5042164;28;43550;-79
2023/06/13 06:54:59;;;;;;;;;;;25.30;59.30;;;;;;5044437;28;43042;-85
2023/06/13 06:57:25;;;;;;;;;;;25.40;58.90;;;;;;5044541;28;43640;-78
2023/06/13 06:59:51;;;;;;;;;;;25.40;59.40;;;;;;5038645;28;42937;-79
2023/06/13 07:02:16;;;;;;;;;;;25.40;59.50;;;;;;5041136;28;42975;-86
2023/06/13 07:04:42;;;;;;;;;;;25.30;58.90;;;;;;5047677;28;43222;-82
2023/06/13 07:07:07;;;;;;;;;;;25.40;59.00;;;;;;5048913;28;43418;-81
2023/06/13 07:09:33;;;;;;;;;;;25.40;59.00;;;;;;5043599;28;43111;-82
2023/06/13 07:11:58;;;;;;;;;;;25.30;59.70;;;;;;5043549;28;42935;-81
2023/06/13 07:14:25;;;;;;;;;;;25.40;59.70;;;;;;5059470;28;42847;-81
2023/06/13 07:16:50;;;;;;;;;;;25.30;59.70;;;;;;5064343;28;42924;-81
2023/06/13 07:19:16;;;;;;;;;;;25.30;59.90;;;;;;5064592;28;42829;-81
2023/06/13 07:21:42;;;;;;;;;;;25.30;60.00;;;;;;5061452;28;43430;-79
2023/06/13 07:24:07;;;;;;;;;;;25.30;59.90;;;;;;5046676;28;43276;-78
2023/06/13 07:26:33;;;;;;;;;;;25.20;59.40;;;;;;5043068;28;43232;-79
2023/06/13 07:28:58;;;;;;;;;;;25.30;60.20;;;;;;5042431;28;42982;-78
2023/06/13 07:31:24;;;;;;;;;;;25.20;59.80;;;;;;5047123;28;44033;-78
2023/06/13 07:33:50;;;;;;;;;;;25.20;59.90;;;;;;5061120;28;42796;-78
2023/06/13 07:36:16;;;;;;;;;;;25.20;59.90;;;;;;5045284;28;44643;-78
2023/06/13 07:38:42;;;;;;;;;;;25.20;60.20;;;;;;5044042;28;42943;-80
2023/06/13 07:41:07;;;;;;;;;;;25.20;59.90;;;;;;5043173;28;42911;-79
2023/06/13 07:43:33;;;;;;;;;;;25.20;59.90;;;;;;5043200;28;42918;-79
2023/06/13 07:45:58;;;;;;;;;;;25.10;59.30;;;;;;5043369;28;43631;-79
2023/06/13 07:48:24;;;;;;;;;;;25.10;59.30;;;;;;5043161;28;42920;-79
2023/06/13 07:50:50;;;;;;;;;;;25.10;59.20;;;;;;5043355;28;42939;-80
2023/06/13 07:53:16;;;;;;;;;;;25.10;59.10;;;;;;5043568;28;42947;-80
2023/06/13 07:55:46;;;;;;;;;;;25.10;59.60;;;;;;5042679;28;43840;-79
2023/06/13 07:58:13;;;;;;;;;;;25.10;59.50;;;;;;5042898;28;42975;-79
2023/06/13 08:00:38;;;;;;;;;;;25.10;59.40;;;;;;5043703;28;43291;-78
2023/06/13 08:03:04;;;;;;;;;;;25.10;59.30;;;;;;5043530;28;42822;-79
2023/06/13 08:05:30;;;;;;;;;;;25.00;58.80;;;;;;5041354;28;44001;-78
2023/06/13 08:07:56;;;;;;;;;;;25.00;59.20;;;;;;5043537;28;43394;-77
2023/06/13 08:10:22;;;;;;;;;;;25.00;58.70;;;;;;5045682;28;43190;-78
2023/06/13 08:12:48;;;;;;;;;;;25.00;58.80;;;;;;5060012;28;42907;-77
2023/06/13 08:15:14;;;;;;;;;;;25.00;58.90;;;;;;5042950;28;43898;-76
2023/06/13 08:17:41;;;;;;;;;;;25.00;58.60;;;;;;5043407;28;43291;-78
2023/06/13 08:20:08;;;;;;;;;;;25.00;58.60;;;;;;5061851;28;43062;-77
2023/06/13 08:22:34;;;;;;;;;;;24.90;59.10;;;;;;5063749;28;42865;-78
2023/06/13 08:24:59;;;;;;;;;;;25.00;59.20;;;;;;5063639;28;43271;-77
2023/06/13 08:27:25;;;;;;;;;;;25.00;59.10;;;;;;5060134;28;42947;-79
2023/06/13 08:29:51;;;;;;;;;;;24.90;58.60;;;;;;5063635;28;43098;-78
2023/06/13 08:32:16;;;;;;;;;;;24.90;59.10;;;;;;5063994;28;42920;-78
2023/06/13 08:34:42;;;;;;;;;;;25.00;59.30;;;;;;5045093;28;45416;-78
2023/06/13 08:37:07;;;;;;;;;;;25.00;58.50;;;;;;5062970;28;43009;-78
2023/06/13 08:39:33;;;;;;;;;;;24.90;58.40;;;;;;5059452;28;43010;-78
2023/06/13 08:41:59;;;;;;;;;;;24.90;59.00;;;;;;5034670;28;43043;-77
2023/06/13 08:44:26;;;;;;;;;;;25.00;59.00;;;;;;5045234;28;43377;-78
2023/06/13 08:46:52;;;;;;;;;;;24.90;58.70;;;;;;5044827;28;43099;-78
2023/06/13 08:49:17;;;;;;;;;;;24.90;59.40;;;;;;5044930;28;43104;-78
2023/06/13 08:51:45;;;;;;;;;;;24.90;58.70;;;;;;5041820;28;43066;-78
2023/06/13 08:54:12;;;;;;;;;;;24.90;58.60;;;;;;5045025;28;43306;-81
2023/06/13 08:56:42;;;;;;;;;;;24.90;58.60;;;;;;5045625;28;43000;-81
2023/06/13 08:59:08;;;;;;;;;;;24.90;57.70;;;;;;5046203;28;43325;-81
2023/06/13 09:01:39;;;;;;;;;;;24.90;57.10;;;;;;5046485;28;43018;-81
2023/06/13 09:04:09;;;;;;;;;;;24.90;56.60;;;;;;5027201;28;45039;-82
2023/06/13 09:06:37;;;;;;;;;;;24.90;56.60;;;;;;5056564;28;42928;-84
2023/06/13 09:09:03;;;;;;;;;;;24.90;56.70;;;;;;5065418;28;42973;-85
2023/06/13 09:11:29;;;;;;;;;;;24.90;56.50;;;;;;5044882;28;43013;-82
2023/06/13 09:13:58;;;;;;;;;;;24.90;56.50;;;;;;5044928;28;43342;-85
2023/06/13 09:16:24;;;;;;;;;;;25.00;56.70;;;;;;5045604;28;42891;-81
2023/06/13 09:18:49;;;;;;;;;;;24.90;56.60;;;;;;5054095;28;42920;-83
2023/06/13 09:21:16;;;;;;;;;;;24.80;56.70;;;;;;5067086;28;43069;-86
2023/06/13 09:23:42;;;;;;;;;;;24.90;56.90;;;;;;5048968;28;42899;-85
2023/06/13 09:26:08;;;;;;;;;;;24.90;56.40;;;;;;5046404;28;43048;-86
2023/06/13 09:28:37;;;;;;;;;;;24.90;56.00;;;;;;5045954;28;42934;-85
2023/06/13 09:31:02;;;;;;;;;;;24.90;56.10;;;;;;5044792;28;43085;-81
2023/06/13 09:33:28;;;;;;;;;;;25.00;56.60;;;;;;5046238;28;42888;-85
2023/06/13 09:35:54;;;;;;;;;;;25.00;56.30;;;;;;5045210;28;42813;-80
2023/06/13 09:38:23;;;;;;;;;;;25.00;55.60;;;;;;5046116;28;43105;-81
2023/06/13 09:40:49;;;;;;;;;;;24.90;54.00;;;;;;5045368;28;42928;-77
2023/06/13 09:43:15;;;;;;;;;;;24.90;54.00;;;;;;5042556;28;43730;-77
2023/06/13 09:45:43;;;;;;;;;;;24.90;54.40;;;;;;5045511;28;42993;-79
2023/06/13 09:48:09;;;;;;;;;;;24.90;54.90;;;;;;5041791;28;43498;-77
2023/06/13 09:50:36;;;;;;;;;;;24.90;55.10;;;;;;5044973;28;43077;-77
2023/06/13 09:53:01;;;;;;;;;;;25.00;54.90;;;;;;5044967;28;44588;-77
2023/06/13 09:55:27;;;;;;;;;;;24.90;54.10;;;;;;5043364;28;42890;-82
2023/06/13 09:57:53;;;;;;;;;;;25.00;53.70;;;;;;5044920;28;44465;-86
2023/06/13 10:00:20;;;;;;;;;;;25.00;53.40;;;;;;5045554;28;42922;-79
2023/06/13 10:02:46;;;;;;;;;;;25.00;52.90;;;;;;5045409;28;43691;-78
2023/06/13 10:05:12;;;;;;;;;;;25.00;52.90;;;;;;5045909;28;42903;-80
2023/06/13 10:07:37;;;;;;;;;;;25.00;53.00;;;;;;5043315;28;43050;-80
2023/06/13 10:10:03;;;;;;;;;;;24.90;52.00;;;;;;5045576;28;42904;-84
2023/06/13 10:12:29;;;;;;;;;;;24.90;52.50;;;;;;5045219;28;42905;-79
2023/06/13 10:14:56;;;;;;;;;;;24.90;52.40;;;;;;5045571;28;42817;-80
2023/06/13 10:17:22;;;;;;;;;;;24.90;52.10;;;;;;5045147;28;43434;-81
2023/06/13 10:19:51;;;;;;;;;;;25.00;52.50;;;;;;5050494;28;43038;-80
2023/06/13 10:22:17;;;;;;;;;;;25.00;52.40;;;;;;5041176;28;43607;-80
2023/06/13 10:24:43;;;;;;;;;;;25.00;52.80;;;;;;5045232;28;42844;-80
2023/06/13 10:27:14;;;;;;;;;;;25.00;52.00;;;;;;5041736;28;43562;-81
2023/06/13 10:30:09;;;;;;;;;;;25.00;51.90;;;;;;5043756;28;42836;-80
2023/06/13 10:32:34;;;;;;;;;;;25.00;51.60;;;;;;5019594;28;43622;-80
2023/06/13 10:35:03;;;;;;;;;;;25.00;51.00;;;;;;5044708;28;43000;-80
2023/06/13 10:37:48;;;;;;;;;;;25.00;50.80;;;;;;5041889;28;43941;-79
2023/06/13 10:40:32;;;;;;;;;;;24.90;51.10;;;;;;5042324;28;42943;-81
2023/06/13 10:43:03;;;;;;;;;;;24.90;51.40;;;;;;5041092;28;42936;-80
2023/06/13 10:45:29;;;;;;;;;;;25.00;51.50;;;;;;5044933;28;42921;-79
2023/06/13 10:47:57;;;;;;;;;;;25.00;51.70;;;;;;5045070;28;43023;-79
2023/06/13 10:50:23;;;;;;;;;;;25.00;50.90;;;;;;5025591;28;43007;-81
2023/06/13 10:52:51;;;;;;;;;;;25.00;50.50;;;;;;5025869;28;42936;-80
2023/06/13 10:55:24;;;;;;;;;;;25.00;50.50;;;;;;5044676;28;42812;-81
2023/06/13 10:57:56;;;;;;;;;;;25.10;51.10;;;;;;5042482;28;43351;-80
2023/06/13 11:00:21;;;;;;;;;;;25.00;51.20;;;;;;5044149;28;43469;-80
2023/06/13 11:02:47;;;;;;;;;;;25.00;50.60;;;;;;5042408;28;43468;-81
2023/06/13 11:05:12;;;;;;;;;;;25.00;50.40;;;;;;5044317;28;43106;-81
2023/06/13 11:07:45;;;;;;;;;;;25.10;51.00;;;;;;5044339;28;42937;-79
2023/06/13 11:10:15;;;;;;;;;;;25.10;50.10;;;;;;5042558;28;43069;-79
2023/06/13 11:12:41;;;;;;;;;;;25.00;50.40;;;;;;5044355;28;42954;-81
2023/06/13 11:15:21;;;;;;;;;;;25.00;49.90;;;;;;5041890;28;42952;-80
2023/06/13 11:18:05;;;;;;;;;;;25.00;50.00;;;;;;5037229;28;43811;-81
2023/06/13 11:20:31;;;;;;;;;;;25.00;50.20;;;;;;5021640;28;43014;-78
2023/06/13 11:22:59;;;;;;;;;;;25.00;50.40;;;;;;5036531;28;64400;-80
2023/06/13 11:25:25;;;;;;;;;;;25.10;50.50;;;;;;5035286;28;42892;-78
2023/06/13 11:27:50;;;;;;;;;;;25.00;50.40;;;;;;5036464;28;43132;-81
2023/06/13 11:30:19;;;;;;;;;;;25.00;50.50;;;;;;5040760;28;43034;-80
2023/06/13 11:32:45;;;;;;;;;;;25.10;50.00;;;;;;5043978;28;43787;-81
2023/06/13 11:35:12;;;;;;;;;;;25.00;50.40;;;;;;5043820;28;42812;-81
2023/06/13 11:37:44;;;;;;;;;;;25.10;50.00;;;;;;5043864;28;43833;-81
2023/06/13 11:40:14;;;;;;;;;;;25.00;50.20;;;;;;5044099;28;43062;-81
2023/06/13 11:42:40;;;;;;;;;;;25.00;50.50;;;;;;5038627;28;43051;-82
2023/06/13 11:45:06;;;;;;;;;;;25.10;50.40;;;;;;5025301;28;43024;-82
2023/06/13 11:47:32;;;;;;;;;;;25.10;50.30;;;;;;5043853;28;43623;-77
2023/06/13 11:49:58;;;;;;;;;;;25.10;50.20;;;;;;5053607;28;42914;-79
2023/06/13 11:52:23;;;;;;;;;;;25.10;50.20;;;;;;5043185;28;45550;-80
2023/06/13 11:54:50;;;;;;;;;;;25.10;50.40;;;;;;5064420;28;42863;-80
2023/06/13 11:57:19;;;;;;;;;;;25.10;51.10;;;;;;5058490;28;42798;-81
2023/06/13 11:59:44;;;;;;;;;;;25.00;50.50;;;;;;5043707;28;42876;-79
2023/06/13 12:02:13;;;;;;;;;;;25.10;50.60;;;;;;5035601;28;43815;-88
2023/06/13 12:04:41;;;;;;;;;;;25.10;50.30;;;;;;5042352;28;43213;-91
2023/06/13 12:07:07;;;;;;;;;;;25.10;50.10;;;;;;5053299;28;43029;-89
2023/06/13 12:09:33;;;;;;;;;;;25.10;50.20;;;;;;5062305;28;42975;-75
2023/06/13 12:11:59;;;;;;;;;;;21.30;48.50;;;;;;5064148;28;43067;-88
2023/06/13 12:14:25;;;;;;;;;;;25.00;50.80;;;;;;5065484;28;42899;-89
2023/06/13 12:16:54;;;;;;;;;;;25.10;50.50;;;;;;5066963;28;43194;-82
2023/06/13 12:19:21;;;;;;;;;;;25.10;51.00;;;;;;5049493;28;42969;-88
2023/06/13 12:21:48;;;;;;;;;;;25.10;51.10;;;;;;5045611;28;43504;-78
2023/06/13 12:24:14;;;;;;;;;;;25.10;51.10;;;;;;5044113;28;43086;-78
2023/06/13 12:26:43;;;;;;;;;;;25.10;51.50;;;;;;5047759;28;43524;-79
2023/06/13 12:29:11;;;;;;;;;;;25.10;51.20;;;;;;5043079;28;43196;-79
2023/06/13 12:31:44;;;;;;;;;;;25.10;50.80;;;;;;5044984;28;44013;-77
2023/06/13 12:34:13;;;;;;;;;;;25.10;51.30;;;;;;5043163;28;43090;-77
2023/06/13 12:36:44;;;;;;;;;;;25.10;50.70;;;;;;5034292;28;42900;-79
2023/06/13 12:39:16;;;;;;;;;;;25.10;50.70;;;;;;5038571;28;42886;-81
2023/06/13 12:41:52;;;;;;;;;;;25.10;50.60;;;;;;5034821;28;43991;-78
2023/06/13 12:44:19;;;;;;;;;;;25.10;50.60;;;;;;5021384;28;43044;-78
2023/06/13 12:46:45;;;;;;;;;;;25.10;51.10;;;;;;5040217;28;42956;-79
2023/06/13 12:49:11;;;;;;;;;;;25.10;51.20;;;;;;5038309;28;43212;-80
2023/06/13 12:51:55;;;;;;;;;;;25.10;50.90;;;;;;5036652;28;43960;-79
2023/06/13 12:54:24;;;;;;;;;;;25.10;51.40;;;;;;5037625;28;42949;-79
2023/06/13 12:57:10;;;;;;;;;;;25.10;51.60;;;;;;5038707;28;43223;-77
2023/06/13 12:59:37;;;;;;;;;;;25.10;51.10;;;;;;5046360;28;43015;-78
2023/06/13 13:02:06;;;;;;;;;;;25.10;51.20;;;;;;5043776;28;43470;-79
2023/06/13 13:04:34;;;;;;;;;;;25.10;51.70;;;;;;5046235;28;42944;-78
2023/06/13 13:07:00;;;;;;;;;;;25.20;51.30;;;;;;5046397;28;43331;-78
2023/06/13 13:09:26;;;;;;;;;;;25.20;51.90;;;;;;5028190;28;42955;-78
2023/06/13 13:11:55;;;;;;;;;;;25.20;51.30;;;;;;5046245;28;43474;-79
2023/06/13 13:14:24;;;;;;;;;;;25.20;51.90;;;;;;5047196;28;43072;-79
2023/06/13 13:16:50;;;;;;;;;;;25.10;51.30;;;;;;5047061;28;42951;-79
2023/06/13 13:19:16;;;;;;;;;;;25.20;51.50;;;;;;5047011;28;42849;-79
2023/06/13 13:21:42;;;;;;;;;;;25.10;51.40;;;;;;5028165;28;44591;-79
2023/06/13 13:24:08;;;;;;;;;;;25.20;52.00;;;;;;5046651;28;43034;-79
2023/06/13 13:26:33;;;;;;;;;;;25.10;51.40;;;;;;5045510;28;42896;-78
2023/06/13 13:28:59;;;;;;;;;;;25.20;51.40;;;;;;5046503;28;43015;-77
2023/06/13 13:31:24;;;;;;;;;;;25.10;51.30;;;;;;5046302;28;43894;-78
2023/06/13 13:33:50;;;;;;;;;;;25.20;51.80;;;;;;5046094;28;42999;-78
2023/06/13 13:36:16;;;;;;;;;;;25.20;51.30;;;;;;5046104;28;43424;-78
2023/06/13 13:38:41;;;;;;;;;;;25.20;51.10;;;;;;5046435;28;42901;-78
2023/06/13 13:41:07;;;;;;;;;;;25.20;51.60;;;;;;5046260;28;42801;-78
2023/06/13 13:43:33;;;;;;;;;;;25.20;51.60;;;;;;5046294;28;42912;-79
2023/06/13 13:45:58;;;;;;;;;;;25.20;51.30;;;;;;5046222;28;42831;-78
2023/06/13 13:48:24;;;;;;;;;;;25.10;51.70;;;;;;5046448;28;42963;-78
2023/06/13 13:50:50;;;;;;;;;;;25.10;51.20;;;;;;5046238;28;43458;-78
2023/06/13 13:53:17;;;;;;;;;;;25.10;51.30;;;;;;5028290;28;42945;-78
2023/06/13 13:55:43;;;;;;;;;;;25.10;51.30;;;;;;5045895;28;44599;-79
2023/06/13 13:58:09;;;;;;;;;;;25.20;51.50;;;;;;5046442;28;42999;-79
2023/06/13 14:00:35;;;;;;;;;;;25.10;51.50;;;;;;5027813;28;44484;-78
2023/06/13 14:03:00;;;;;;;;;;;25.20;51.60;;;;;;5027368;28;42940;-78
2023/06/13 14:05:26;;;;;;;;;;;25.20;51.70;;;;;;5027109;28;44240;-78
2023/06/13 14:07:51;;;;;;;;;;;25.20;51.70;;;;;;5045841;28;42962;-78
2023/06/13 14:10:17;;;;;;;;;;;25.20;51.70;;;;;;5045565;28;42977;-79
2023/06/13 14:12:43;;;;;;;;;;;25.20;51.80;;;;;;5028044;28;43031;-77
2023/06/13 14:15:09;;;;;;;;;;;25.20;51.80;;;;;;5011424;28;44592;-78